Krusa-Padborg Airport


Codes: EKPB/
Name: Krusa-Padborg Airport
City: Krusa / Padborg
Country: Denmark
Elevation: 88 ft.

Photos at Krusa-Padborg Airport


   Photos courtesy of SpottingLog. You can add your own sightings and photos by signing up for a free trial today.



No photos found.

Weather at Krusa-Padborg Airport


Time (UTC)DescriptionTempratureWindCloud coverageVisibilityPressureHumidity
26-Jun-2024 00:00Clear Sky16°C7 mph, E0%10000m1016hPa87%
26-Jun-2024 03:00Clear Sky15°C7 mph, E0%10000m1017hPa92%
26-Jun-2024 06:00Clear Sky18°C7 mph, E0%10000m1016hPa85%
26-Jun-2024 09:00Clear Sky22°C9 mph, E0%10000m1015hPa71%
26-Jun-2024 12:00Clear Sky24°C9 mph, E0%10000m1015hPa63%
26-Jun-2024 15:00Clear Sky23°C11 mph, E0%10000m1014hPa63%
26-Jun-2024 18:00Clear Sky21°C7 mph, E0%10000m1013hPa80%
26-Jun-2024 21:00Scattered Clouds17°C7 mph, E39%10000m1012hPa94%
27-Jun-2024 00:00Scattered Clouds16°C7 mph, E28%10000m1011hPa95%
27-Jun-2024 03:00Clear Sky16°C9 mph, E3%10000m1010hPa95%
27-Jun-2024 06:00Scattered Clouds18°C9 mph, E31%10000m1009hPa89%
27-Jun-2024 09:00Broken Clouds24°C11 mph, SE58%10000m1008hPa76%
27-Jun-2024 12:00Light Rain27°C11 mph, SE27%10000m1007hPa73%
27-Jun-2024 15:00Moderate Rain22°C7 mph, SE100%10000m1007hPa88%
27-Jun-2024 18:00Moderate Rain20°C2 mph, SE100%10000m1008hPa95%
27-Jun-2024 21:00Light Rain17°C7 mph, SW100%10000m1007hPa94%
28-Jun-2024 00:00Broken Clouds16°C7 mph, SW67%10000m1007hPa96%
28-Jun-2024 03:00Overcast Clouds15°C9 mph, SW100%10000m1007hPa97%
28-Jun-2024 06:00Light Rain16°C11 mph, SW75%10000m1008hPa89%
28-Jun-2024 09:00Light Rain18°C20 mph, SW26%10000m1010hPa72%
28-Jun-2024 12:00Light Rain18°C22 mph, SW31%10000m1012hPa70%
28-Jun-2024 15:00Light Rain17°C20 mph, SW46%10000m1014hPa73%
28-Jun-2024 18:00Light Rain15°C16 mph, SW29%10000m1016hPa78%
28-Jun-2024 21:00Scattered Clouds13°C9 mph, W34%10000m1017hPa82%
29-Jun-2024 00:00Few Clouds12°C7 mph, SW22%10000m1017hPa88%
29-Jun-2024 03:00Scattered Clouds11°C7 mph, SW41%10000m1017hPa92%
29-Jun-2024 06:00Scattered Clouds15°C9 mph, S28%10000m1017hPa81%
29-Jun-2024 09:00Light Rain18°C9 mph, SW87%10000m1017hPa65%
29-Jun-2024 12:00Broken Clouds20°C9 mph, S65%10000m1015hPa55%
29-Jun-2024 15:00Overcast Clouds21°C7 mph, S93%10000m1013hPa55%
29-Jun-2024 18:00Broken Clouds18°C11 mph, E83%10000m1010hPa84%
29-Jun-2024 21:00Overcast Clouds16°C9 mph, E100%10000m1009hPa87%
30-Jun-2024 00:00Overcast Clouds17°C11 mph, E100%10000m1006hPa86%
30-Jun-2024 03:00Light Rain17°C9 mph, SE100%10000m1002hPa94%
30-Jun-2024 06:00Moderate Rain17°C11 mph, SE100%3124m999hPa98%
30-Jun-2024 09:00Light Rain18°C18 mph, S100%8660m998hPa96%
30-Jun-2024 12:00Light Rain17°C16 mph, W100%10000m1001hPa92%
30-Jun-2024 15:00Light Rain17°C18 mph, W88%10000m1003hPa82%
30-Jun-2024 18:00Overcast Clouds17°C13 mph, SW90%10000m1004hPa82%
30-Jun-2024 21:00Light Rain15°C11 mph, SW92%10000m1004hPa94%